CheckWX is a tool to help pilots better visualize weather data.  It is not intended as a substitute for an official pre-flight weather briefing.

09:56:57 UTC

CYVM METAR
Qikiqtarjuaq Airport
Qikiqtarjuaq, Canada
Current

57 mins ago

CYVM 210900Z AUTO 21007KT 9SM CLR M30/M34 A2960 RMK SLP027
Observed
Jan-21 @ 09:00 UTC
Wind
  • 210° at 7 KTS
Visibility
9 SM
Flight Rules
VFR
Cloud Levels
  • Clear skies
Temperature
-30°C / -22°F
Dewpoint
-34°C / -29°F
Humidity
68%
Altimeter
29.6" Hg
Pressure
1002.42 hPa
Previous

2 hours ago

CYVM 210800Z AUTO 20005KT 130V220 9SM CLR M29/M33 A2961 RMK SLP029
Observed
Jan-21 @ 08:00 UTC
Wind
  • 200° at 5 KTS
Visibility
9 SM
Flight Rules
VFR
Cloud Levels
  • Clear skies
Temperature
-29°C / -20°F
Dewpoint
-33°C / -27°F
Humidity
68%
Altimeter
29.61" Hg
Pressure
1002.72 hPa
Previous

3 hours ago

CYVM 210700Z AUTO 21006KT 9SM CLR M30/M33 A2962 RMK SLP033
Observed
Jan-21 @ 07:00 UTC
Wind
  • 210° at 6 KTS
Visibility
9 SM
Flight Rules
VFR
Cloud Levels
  • Clear skies
Temperature
-30°C / -22°F
Dewpoint
-33°C / -27°F
Humidity
75%
Altimeter
29.62" Hg
Pressure
1003.02 hPa